Time;durP1;ratioP1;P1;durP2;ratioP2;P2;SDS_P1;SDS_P2;PMS_P1;PMS_P2;Temp;Humidity;BMP_temperature;BMP_pressure;BME280_temperature;BME280_humidity;BME280_pressure;Samples;Min_cycle;Max_cycle;Signal;HPM_P1;HPM_P2
2023/01/08 00:02:08;;;;;;;6.47;5.23;;;;;;;9.38;75.38;99753.47;5014881;28;20424;-74
2023/01/08 00:04:34;;;;;;;5.43;4.90;;;;;;;9.38;75.82;99737.25;5014165;28;20428;-74
2023/01/08 00:06:59;;;;;;;5.97;4.77;;;;;;;9.37;75.84;99734.81;5014904;28;20619;-74
2023/01/08 00:09:24;;;;;;;5.47;4.73;;;;;;;9.36;75.80;99731.31;5014725;28;20488;-74
2023/01/08 00:11:49;;;;;;;5.20;4.70;;;;;;;9.34;75.38;99730.75;5014905;28;20910;-74
2023/01/08 00:14:15;;;;;;;5.20;4.63;;;;;;;9.33;75.83;99736.41;5014324;28;20760;-75
2023/01/08 00:16:40;;;;;;;5.60;4.40;;;;;;;9.27;75.96;99738.25;5014596;28;20440;-74
2023/01/08 00:19:05;;;;;;;5.83;4.20;;;;;;;9.26;76.29;99735.78;5014468;28;20420;-74
2023/01/08 00:21:31;;;;;;;5.17;4.37;;;;;;;9.23;76.13;99720.88;4996853;28;20469;-74
2023/01/08 00:23:56;;;;;;;4.20;3.70;;;;;;;9.23;76.22;99717.38;5014041;28;20415;-75
2023/01/08 00:26:21;;;;;;;5.90;3.50;;;;;;;9.22;76.34;99707.66;5014555;28;20867;-75
2023/01/08 00:28:46;;;;;;;3.87;3.50;;;;;;;9.23;76.18;99715.47;5014444;28;20412;-74
2023/01/08 00:31:12;;;;;;;3.78;3.28;;;;;;;9.23;76.38;99711.97;4996733;28;20868;-74
2023/01/08 00:33:39;;;;;;;4.28;3.80;;;;;;;9.23;76.84;99711.97;5013209;28;20409;-74
2023/01/08 00:36:10;;;;;;;4.10;3.70;;;;;;;9.25;76.28;99704.44;5014366;28;20483;-74
2023/01/08 00:38:36;;;;;;;5.73;3.83;;;;;;;9.25;76.19;99688.22;5014299;28;20407;-74
2023/01/08 00:41:01;;;;;;;4.63;4.00;;;;;;;9.22;76.85;99694.91;5014186;28;20412;-75
2023/01/08 00:43:27;;;;;;;4.70;4.30;;;;;;;9.23;76.50;99698.44;5013277;28;20439;-74
2023/01/08 00:45:52;;;;;;;4.27;3.87;;;;;;;9.21;76.35;99701.41;5014160;28;20425;-74
2023/01/08 00:48:18;;;;;;;4.47;3.70;;;;;;;9.21;76.45;99692.47;5013811;28;20401;-75
2023/01/08 00:50:44;;;;;;;4.40;3.87;;;;;;;9.23;76.15;99688.44;5014012;28;20408;-74
2023/01/08 00:53:09;;;;;;;3.90;3.50;;;;;;;9.24;76.52;99679.28;5012811;28;20405;-74
2023/01/08 00:55:34;;;;;;;5.03;3.30;;;;;;;9.23;76.09;99677.63;4996497;28;20396;-74
2023/01/08 00:58:00;;;;;;;3.77;3.37;;;;;;;9.22;76.31;99667.09;4996434;28;20405;-74
2023/01/08 01:00:25;;;;;;;4.18;3.67;;;;;;;9.25;76.67;99672.78;4996201;28;20876;-75
2023/01/08 01:02:50;;;;;;;6.33;3.97;;;;;;;9.22;76.75;99673.28;5012655;28;20539;-75
2023/01/08 01:05:16;;;;;;;4.43;4.03;;;;;;;9.24;76.17;99676.56;4996151;28;20416;-75
2023/01/08 01:07:43;;;;;;;5.03;3.90;;;;;;;9.22;76.58;99672.50;5013187;28;20393;-74
2023/01/08 01:10:10;;;;;;;4.80;4.40;;;;;;;9.16;76.73;99679.72;5013664;28;20795;-74
2023/01/08 01:12:37;;;;;;;4.90;4.50;;;;;;;9.13;76.64;99665.88;5013573;28;20401;-74
2023/01/08 01:15:04;;;;;;;9.45;7.20;;;;;;;9.13;76.16;99674.81;4995832;28;20420;-74
2023/01/08 01:17:29;;;;;;;7.50;6.10;;;;;;;9.18;76.21;99674.88;4995539;28;20412;-75
2023/01/08 01:19:55;;;;;;;6.53;5.73;;;;;;;9.17;76.60;99664.31;5013432;28;20401;-75
2023/01/08 01:22:20;;;;;;;7.37;5.40;;;;;;;9.16;76.43;99655.38;5013335;28;20427;-74
2023/01/08 01:24:45;;;;;;;7.67;5.90;;;;;;;9.14;76.33;99664.84;5012862;28;20411;-74
2023/01/08 01:27:10;;;;;;;6.27;5.23;;;;;;;9.13;76.74;99657.78;4979354;28;20884;-74
2023/01/08 01:29:36;;;;;;;5.60;5.00;;;;;;;9.11;76.65;99666.16;5012858;28;20409;-74
2023/01/08 01:32:01;;;;;;;5.30;4.77;;;;;;;9.14;76.48;99667.53;4995593;28;20400;-75
2023/01/08 01:34:26;;;;;;;7.10;4.73;;;;;;;9.14;76.54;99671.06;5012826;28;20409;-74
2023/01/08 01:36:51;;;;;;;6.17;4.40;;;;;;;9.16;77.06;99676.19;5013249;28;20404;-74
2023/01/08 01:39:18;;;;;;;5.70;4.57;;;;;;;9.18;76.49;99676.78;5013265;28;20870;-74
2023/01/08 01:41:45;;;;;;;4.07;3.78;;;;;;;9.21;76.54;99666.28;5013106;28;20503;-74
2023/01/08 01:44:45;;;;;;;5.95;4.78;;;;;;;9.27;77.03;99673.34;5012156;28;20404;-74
2023/01/08 01:47:25;;;;;;;4.38;4.07;;;;;;;9.31;76.58;99671.78;5013032;28;20401;-74
2023/01/08 01:50:13;;;;;;;5.18;4.68;;;;;;;9.31;77.06;99674.47;4995743;28;20492;-74
2023/01/08 01:52:52;;;;;;;5.30;4.80;;;;;;;9.34;76.89;99675.84;5012620;28;20409;-74
2023/01/08 01:55:18;;;;;;;5.20;4.40;;;;;;;9.36;76.89;99663.69;5012564;28;20487;-74
2023/01/08 01:57:50;;;;;;;6.10;4.63;;;;;;;9.39;77.23;99662.38;4995199;28;20392;-75
2023/01/08 02:00:16;;;;;;;4.63;4.13;;;;;;;9.39;77.67;99662.38;5012699;28;20401;-74
2023/01/08 02:02:41;;;;;;;6.03;4.80;;;;;;;9.38;77.56;99649.94;5012239;28;20718;-75
2023/01/08 02:05:07;;;;;;;5.83;4.70;;;;;;;9.38;77.99;99656.13;5012268;28;20543;-74
2023/01/08 02:08:11;;;;;;;8.60;5.20;;;;;;;9.43;78.26;99651.84;4994937;28;20392;-74
2023/01/08 02:11:01;;;;;;;5.80;5.22;;;;;;;9.46;78.04;99641.34;5003293;28;20880;-74
2023/01/08 02:17:03;;;;;;;9.53;5.80;;;;;;;9.43;78.63;99633.75;5011356;28;20443;-75
2023/01/08 02:19:47;;;;;;;6.27;5.60;;;;;;;9.42;78.83;99626.69;4992994;28;20436;-74
2023/01/08 02:22:12;;;;;;;7.07;5.30;;;;;;;9.43;78.29;99627.50;5012665;28;20412;-74
2023/01/08 02:24:52;;;;;;;5.93;5.33;;;;;;;9.37;78.58;99630.19;5011667;28;20400;-75
2023/01/08 02:27:19;;;;;;;5.77;4.73;;;;;;;9.36;78.85;99633.13;5011917;28;20436;-75
2023/01/08 02:29:46;;;;;;;5.95;5.13;;;;;;;9.37;78.56;99623.97;5011921;28;20413;-74
2023/01/08 02:32:12;;;;;;;6.38;5.10;;;;;;;9.39;78.78;99624.50;4994327;28;20470;-74
2023/01/08 02:34:37;;;;;;;5.30;4.80;;;;;;;9.40;79.32;99618.03;4994439;28;20404;-74
2023/01/08 02:37:03;;;;;;;5.37;4.87;;;;;;;9.41;79.04;99624.25;5012187;28;20475;-72
2023/01/08 02:39:54;;;;;;;7.43;5.57;;;;;;;9.44;79.26;99611.03;5012136;28;20845;-74
2023/01/08 02:42:48;;;;;;;6.50;4.85;;;;;;;9.45;79.20;99611.88;5012014;28;20424;-75
2023/01/08 02:45:50;;;;;;;7.22;5.65;;;;;;;9.49;79.06;99600.25;5006141;28;20408;-74
2023/01/08 02:48:32;;;;;;;5.80;5.03;;;;;;;9.51;78.83;99591.91;5007702;28;20458;-74
2023/01/08 02:51:26;;;;;;;6.40;5.78;;;;;;;9.54;78.72;99600.31;5010326;28;20760;-74
2023/01/08 02:53:57;;;;;;;5.95;5.35;;;;;;;9.54;78.76;99585.97;5004523;28;20408;-74
2023/01/08 02:56:30;;;;;;;5.90;5.20;;;;;;;9.55;79.17;99590.31;5011222;28;20519;-75
2023/01/08 02:58:58;;;;;;;6.82;5.70;;;;;;;9.55;79.13;99584.91;5010228;28;20405;-75
2023/01/08 03:05:08;;;;;;;5.22;4.70;;;;;;;9.51;79.60;99581.09;3353723;28;23349;-73
2023/01/08 03:07:34;;;;;;;5.65;4.93;;;;;;;9.51;79.21;99578.38;4972037;28;20431;-74
2023/01/08 03:10:00;;;;;;;6.03;4.93;;;;;;;9.52;79.38;99571.88;4970698;28;20425;-74
2023/01/08 03:12:46;;;;;;;5.90;4.97;;;;;;;9.52;79.94;99569.16;4972949;28;20396;-74
2023/01/08 03:15:17;;;;;;;5.95;4.45;;;;;;;9.53;79.86;99570.81;4972788;28;20450;-75
2023/01/08 03:17:47;;;;;;;7.88;5.20;;;;;;;9.53;79.70;99570.81;4972521;28;20430;-75
2023/01/08 03:20:19;;;;;;;6.00;5.30;;;;;;;9.54;79.68;99570.56;4972097;28;20400;-74
2023/01/08 03:22:48;;;;;;;7.15;5.60;;;;;;;9.57;79.65;99574.63;4973096;28;20756;-74
2023/01/08 03:25:17;;;;;;;6.50;5.28;;;;;;;9.58;79.69;99574.34;4972721;28;20392;-74
2023/01/08 03:27:47;;;;;;;5.03;4.63;;;;;;;9.58;79.56;99568.94;4972370;28;20890;-75
2023/01/08 03:30:16;;;;;;;6.22;5.07;;;;;;;9.59;80.11;99569.75;4974520;28;20788;-74
2023/01/08 03:32:43;;;;;;;6.35;4.82;;;;;;;9.58;79.93;99563.53;4976324;28;20418;-75
2023/01/08 03:35:12;;;;;;;5.27;4.77;;;;;;;9.57;79.88;99559.22;4976448;28;20783;-75
2023/01/08 03:37:42;;;;;;;5.82;5.20;;;;;;;9.57;80.16;99555.69;4976488;28;20400;-74
2023/01/08 03:40:19;;;;;;;7.03;5.38;;;;;;;9.54;80.15;99550.81;4975930;28;20439;-75
2023/01/08 03:42:44;;;;;;;5.00;4.60;;;;;;;9.51;79.95;99554.84;4975100;28;20970;-74
2023/01/08 03:45:10;;;;;;;5.73;4.83;;;;;;;9.52;79.95;99555.66;4976401;28;20479;-74
2023/01/08 03:47:37;;;;;;;5.07;4.57;;;;;;;9.51;79.91;99557.56;4976396;28;20400;-74
2023/01/08 03:50:07;;;;;;;5.15;4.65;;;;;;;9.49;80.20;99556.97;4975761;28;20883;-74
2023/01/08 03:52:32;;;;;;;6.55;5.25;;;;;;;9.50;79.88;99563.22;4976179;28;20396;-75
2023/01/08 03:54:58;;;;;;;7.43;5.60;;;;;;;9.49;79.85;99570.50;4976037;28;20419;-74
2023/01/08 03:57:23;;;;;;;4.90;4.40;;;;;;;9.51;79.67;99564.84;4976261;28;20466;-74
2023/01/08 03:59:49;;;;;;;6.00;4.80;;;;;;;9.51;79.91;99575.66;4975411;28;20791;-74
2023/01/08 04:02:14;;;;;;;4.93;4.53;;;;;;;9.51;80.10;99572.97;4976086;28;20511;-74
2023/01/08 04:04:39;;;;;;;4.97;4.47;;;;;;;9.51;80.16;99571.09;4974701;28;20418;-74
2023/01/08 04:07:06;;;;;;;5.00;4.60;;;;;;;9.52;80.16;99569.16;5011336;28;20444;-74
2023/01/08 04:09:31;;;;;;;6.55;4.78;;;;;;;9.50;79.99;99568.63;5014332;28;20764;-75
2023/01/08 04:11:56;;;;;;;5.13;4.37;;;;;;;9.46;80.54;99567.50;5014237;28;20407;-75
2023/01/08 04:14:22;;;;;;;5.27;4.50;;;;;;;9.46;80.27;99568.31;4996198;28;20405;-75
2023/01/08 04:16:47;;;;;;;4.90;4.40;;;;;;;9.46;80.16;99570.22;5014072;28;20413;-74
2023/01/08 04:19:13;;;;;;;4.97;4.50;;;;;;;9.45;80.16;99572.09;4996542;28;20405;-74
2023/01/08 04:21:39;;;;;;;5.88;4.20;;;;;;;9.46;80.36;99576.44;5014175;28;20448;-74
2023/01/08 04:24:04;;;;;;;5.50;4.10;;;;;;;9.48;80.21;99576.19;5013400;28;20448;-75
2023/01/08 04:26:30;;;;;;;4.80;4.30;;;;;;;9.45;80.67;99580.22;5013281;28;20389;-74
2023/01/08 04:28:56;;;;;;;5.75;4.28;;;;;;;9.44;80.94;99580.47;5013730;28;20412;-74
2023/01/08 04:31:21;;;;;;;6.83;4.10;;;;;;;9.43;80.63;99582.38;4994612;28;20412;-74
2023/01/08 04:33:46;;;;;;;4.43;4.03;;;;;;;9.42;80.80;99585.34;5013711;28;20436;-74
2023/01/08 04:36:12;;;;;;;5.73;4.87;;;;;;;9.43;80.63;99595.06;5013614;28;20417;-74
2023/01/08 04:38:37;;;;;;;5.10;4.53;;;;;;;9.41;81.10;99589.94;5013870;28;20805;-74
2023/01/08 04:41:02;;;;;;;5.10;3.90;;;;;;;9.43;80.49;99586.94;5012579;28;20420;-74
2023/01/08 04:43:28;;;;;;;5.93;4.70;;;;;;;9.43;80.65;99593.19;5014150;28;20895;-74
2023/01/08 04:45:58;;;;;;;5.23;4.77;;;;;;;9.47;80.90;99590.78;5013763;28;20752;-74
2023/01/08 04:48:23;;;;;;;4.60;4.13;;;;;;;9.48;80.46;99584.31;5007911;28;20466;-74
2023/01/08 04:50:50;;;;;;;8.55;4.32;;;;;;;9.51;80.87;99591.91;5013726;28;20791;-74
2023/01/08 04:53:15;;;;;;;5.93;4.28;;;;;;;9.52;80.55;99585.41;4995978;28;20408;-74
2023/01/08 04:55:40;;;;;;;5.03;4.60;;;;;;;9.53;81.03;99587.84;4995939;28;20492;-74
2023/01/08 04:58:05;;;;;;;4.67;4.27;;;;;;;9.53;81.08;99587.84;4995734;28;20892;-74
2023/01/08 05:00:31;;;;;;;5.53;3.47;;;;;;;9.53;80.88;99597.84;5013439;28;20436;-74
2023/01/08 05:02:56;;;;;;;4.73;3.70;;;;;;;9.57;80.91;99586.28;4996000;28;20412;-74
2023/01/08 05:05:21;;;;;;;3.73;3.30;;;;;;;9.60;80.85;99593.03;4995248;28;20436;-74
2023/01/08 05:07:46;;;;;;;5.10;3.63;;;;;;;9.60;81.11;99591.16;5013510;28;20763;-74
2023/01/08 05:10:11;;;;;;;4.55;3.50;;;;;;;9.64;80.87;99596.88;5012889;28;20412;-74
2023/01/08 05:12:37;;;;;;;4.17;3.63;;;;;;;9.63;81.50;99595.22;5012921;28;20401;-74
2023/01/08 05:15:02;;;;;;;4.33;3.63;;;;;;;9.61;81.66;99586.56;5012713;28;20926;-74
2023/01/08 05:17:27;;;;;;;5.43;4.00;;;;;;;9.58;81.32;99584.38;5012566;28;20409;-74
2023/01/08 05:19:53;;;;;;;5.37;3.50;;;;;;;9.61;81.45;99578.44;5013103;28;20461;-74
2023/01/08 05:22:18;;;;;;;3.63;3.33;;;;;;;9.60;81.62;99572.22;5012601;28;20784;-74
2023/01/08 05:24:43;;;;;;;3.63;2.70;;;;;;;9.60;82.16;99577.63;5013029;28;20400;-74
2023/01/08 05:27:08;;;;;;;3.60;3.17;;;;;;;9.62;81.68;99574.66;5012654;28;20455;-74
2023/01/08 05:29:34;;;;;;;3.10;2.90;;;;;;;9.66;82.17;99573.88;4995403;28;20416;-74
2023/01/08 05:31:59;;;;;;;3.70;2.77;;;;;;;9.66;82.02;99576.59;4995244;28;20458;-74
2023/01/08 05:34:24;;;;;;;3.77;2.50;;;;;;;9.67;82.12;99578.22;5012581;28;20404;-74
2023/01/08 05:36:49;;;;;;;3.97;2.60;;;;;;;9.69;81.85;99564.44;5012580;28;20884;-74
2023/01/08 05:39:15;;;;;;;2.63;2.20;;;;;;;9.69;82.27;99559.84;5012406;28;20554;-74
2023/01/08 05:41:40;;;;;;;2.63;2.43;;;;;;;9.70;82.08;99566.06;5012487;28;20420;-74
2023/01/08 05:44:05;;;;;;;3.23;2.80;;;;;;;9.71;82.18;99556.88;5012166;28;20409;-74
2023/01/08 05:46:30;;;;;;;2.43;2.27;;;;;;;9.72;82.00;99555.78;5012407;28;20903;-74
2023/01/08 05:48:56;;;;;;;3.30;2.23;;;;;;;9.73;82.09;99550.13;5012528;28;20565;-74
2023/01/08 05:51:22;;;;;;;3.20;2.47;;;;;;;9.71;82.21;99548.75;5012807;28;20428;-74
2023/01/08 05:53:47;;;;;;;2.50;2.30;;;;;;;9.74;82.27;99553.66;5012228;28;20443;-74
2023/01/08 05:56:12;;;;;;;2.87;2.67;;;;;;;9.75;82.24;99547.13;5012402;28;20475;-74
2023/01/08 05:58:38;;;;;;;4.60;3.47;;;;;;;9.76;82.59;99543.38;5012282;28;20415;-74
2023/01/08 06:01:14;;;;;;;6.10;4.30;;;;;;;9.76;82.43;99546.91;5012138;28;20416;-74
2023/01/08 06:03:39;;;;;;;2.90;2.60;;;;;;;9.70;82.51;99545.25;5012293;28;20456;-74
2023/01/08 06:06:06;;;;;;;2.40;2.30;;;;;;;9.66;82.74;99552.25;5012149;28;20424;-74
2023/01/08 06:08:32;;;;;;;3.05;2.40;;;;;;;9.71;82.77;99537.94;5011676;28;20413;-74
2023/01/08 06:11:02;;;;;;;2.90;2.40;;;;;;;9.76;82.89;99538.78;5012254;28;20412;-74
2023/01/08 06:13:28;;;;;;;2.85;2.50;;;;;;;9.77;82.71;99537.72;5011967;28;20943;-74
2023/01/08 06:15:53;;;;;;;2.63;2.33;;;;;;;9.78;82.63;99536.63;5011415;28;20405;-74
2023/01/08 06:18:19;;;;;;;2.57;2.20;;;;;;;9.81;82.60;99540.72;5012246;28;20408;-74
2023/01/08 06:20:44;;;;;;;3.20;2.90;;;;;;;9.80;82.74;99534.47;4994112;28;20499;-75
2023/01/08 06:23:09;;;;;;;3.87;2.23;;;;;;;9.82;82.74;99543.13;5012010;28;20439;-74
2023/01/08 06:25:35;;;;;;;2.43;2.10;;;;;;;9.83;82.68;99542.06;5011524;28;20733;-74
2023/01/08 06:28:00;;;;;;;2.42;2.22;;;;;;;9.83;82.68;99541.25;5012067;28;20403;-74
2023/01/08 06:30:26;;;;;;;4.83;2.13;;;;;;;9.86;83.02;99556.97;5011700;28;20483;-74
2023/01/08 06:32:58;;;;;;;1.80;1.70;;;;;;;9.76;83.31;99544.19;5012031;28;20882;-74
2023/01/08 06:35:24;;;;;;;4.55;2.17;;;;;;;9.88;83.20;99543.97;5008361;28;20424;-74
2023/01/08 06:37:49;;;;;;;1.90;1.80;;;;;;;9.90;83.10;99541.84;4993776;28;20911;-74
2023/01/08 06:40:15;;;;;;;2.50;1.80;;;;;;;9.91;82.83;99541.56;4994096;28;20900;-74
2023/01/08 06:42:40;;;;;;;2.20;1.90;;;;;;;9.90;83.15;99544.53;5011624;28;20421;-74
2023/01/08 06:45:06;;;;;;;5.40;1.73;;;;;;;9.92;82.81;99547.78;5011744;28;20408;-74
2023/01/08 06:47:32;;;;;;;1.90;1.80;;;;;;;9.91;83.03;99546.97;5011544;28;20432;-74
2023/01/08 06:49:58;;;;;;;3.60;2.00;;;;;;;9.91;83.03;99543.47;5010215;28;20408;-75
2023/01/08 06:52:23;;;;;;;2.50;1.83;;;;;;;9.96;82.91;99548.91;5011118;28;20455;-74
2023/01/08 06:54:48;;;;;;;2.20;1.95;;;;;;;9.95;83.43;99541.03;5011612;28;20405;-74
2023/01/08 06:57:14;;;;;;;2.93;1.70;;;;;;;9.97;82.97;99533.47;4977990;28;20408;-74
2023/01/08 06:59:39;;;;;;;5.50;2.30;;;;;;;9.95;83.57;99539.16;4986784;28;20415;-74
2023/01/08 07:02:04;;;;;;;2.03;1.60;;;;;;;9.96;83.60;99539.97;5008946;28;20423;-74
2023/01/08 07:04:29;;;;;;;2.00;1.70;;;;;;;9.95;83.51;99539.16;5010864;28;20802;-74
2023/01/08 07:06:55;;;;;;;2.77;1.67;;;;;;;9.95;83.31;99538.31;5008854;28;20436;-74
2023/01/08 07:09:20;;;;;;;3.93;1.50;;;;;;;9.96;83.70;99538.06;5008353;28;20405;-74
2023/01/08 07:11:45;;;;;;;2.53;1.50;;;;;;;9.94;83.85;99539.41;4992706;28;20906;-74
2023/01/08 07:14:10;;;;;;;1.50;1.40;;;;;;;9.95;84.03;99532.91;5011429;28;20405;-74
2023/01/08 07:16:36;;;;;;;1.67;1.57;;;;;;;9.98;84.19;99535.91;5010701;28;20401;-74
2023/01/08 07:19:01;;;;;;;2.47;1.40;;;;;;;9.98;83.92;99537.81;5008900;28;20767;-74
2023/01/08 07:21:26;;;;;;;2.45;1.48;;;;;;;9.98;84.10;99543.25;5010805;28;20416;-74
2023/01/08 07:23:51;;;;;;;5.47;3.63;;;;;;;10.02;84.40;99537.00;5008177;28;20423;-72
2023/01/08 07:26:17;;;;;;;2.03;1.90;;;;;;;10.04;84.07;99542.19;5003538;28;20827;-74
2023/01/08 07:28:43;;;;;;;1.80;1.70;;;;;;;10.03;84.07;99538.66;5007254;28;20423;-74
2023/01/08 07:31:08;;;;;;;1.50;1.50;;;;;;;10.01;84.21;99543.50;5009421;28;20412;-74
2023/01/08 07:33:34;;;;;;;1.70;1.60;;;;;;;10.04;84.68;99555.72;5010863;28;20401;-74
2023/01/08 07:36:00;;;;;;;2.80;1.60;;;;;;;10.04;84.64;99542.19;4991976;28;20888;-74
2023/01/08 07:38:25;;;;;;;2.50;1.50;;;;;;;10.03;84.27;99549.47;4992707;28;20420;-74
2023/01/08 07:40:51;;;;;;;2.13;1.53;;;;;;;10.06;84.41;99553.53;5010876;28;20424;-74
2023/01/08 07:43:16;;;;;;;2.23;1.90;;;;;;;10.07;84.54;99550.59;5011285;28;20539;-74
2023/01/08 07:45:41;;;;;;;2.75;2.28;;;;;;;10.03;84.67;99552.19;5009866;28;21051;-74
2023/01/08 07:48:09;;;;;;;2.60;2.40;;;;;;;9.98;85.16;99546.72;5009584;28;20412;-74
2023/01/08 07:50:36;;;;;;;2.35;2.20;;;;;;;9.98;85.44;99545.94;4990814;28;20907;-74
2023/01/08 07:53:01;;;;;;;2.75;2.38;;;;;;;10.08;84.85;99549.50;5008313;28;20492;-74
2023/01/08 07:55:29;;;;;;;2.10;1.92;;;;;;;10.08;85.21;99546.78;5009439;28;20967;-74
2023/01/08 07:57:54;;;;;;;2.22;2.13;;;;;;;10.08;85.04;99535.97;5001342;28;20403;-74
2023/01/08 08:00:20;;;;;;;2.37;1.93;;;;;;;10.08;85.04;99545.97;5009435;28;20872;-74
2023/01/08 08:02:46;;;;;;;2.13;2.03;;;;;;;10.11;84.94;99534.63;5010645;28;20850;-74
2023/01/08 08:05:11;;;;;;;2.20;2.10;;;;;;;10.12;84.85;99539.78;5009167;28;20496;-74
2023/01/08 08:07:36;;;;;;;2.37;2.23;;;;;;;10.13;84.77;99532.47;5010555;28;20749;-74
2023/01/08 08:10:03;;;;;;;2.57;2.37;;;;;;;10.14;85.04;99545.75;5008922;28;20408;-74
2023/01/08 08:12:29;;;;;;;1.90;1.80;;;;;;;10.12;85.12;99545.19;4991887;28;20400;-74
2023/01/08 08:14:54;;;;;;;2.83;2.00;;;;;;;10.16;84.97;99556.34;5010618;28;20443;-74
2023/01/08 08:17:19;;;;;;;3.20;2.20;;;;;;;10.14;85.16;99548.47;5012816;28;20454;-74
2023/01/08 08:19:44;;;;;;;2.95;2.30;;;;;;;10.17;84.96;99552.56;5012945;28;20424;-74
2023/01/08 08:22:12;;;;;;;3.73;2.57;;;;;;;10.16;84.86;99561.75;5011056;28;20978;-74
2023/01/08 08:24:37;;;;;;;3.67;2.63;;;;;;;10.17;85.13;99557.97;4995561;28;20412;-74
2023/01/08 08:27:03;;;;;;;3.20;2.90;;;;;;;10.16;85.29;99553.63;5013314;28;20385;-74
2023/01/08 08:29:28;;;;;;;2.88;2.67;;;;;;;10.18;85.01;99548.75;5012096;28;20414;-74
2023/01/08 08:31:53;;;;;;;4.17;3.03;;;;;;;10.16;85.21;99538.19;5013320;28;20932;-74
2023/01/08 08:34:21;;;;;;;4.33;3.93;;;;;;;10.17;85.00;99547.97;5012489;28;20404;-74
2023/01/08 08:36:47;;;;;;;3.72;3.42;;;;;;;10.18;85.20;99551.47;5009913;28;20479;-75
2023/01/08 08:39:12;;;;;;;4.35;3.72;;;;;;;10.19;85.08;99545.78;5010753;28;20547;-76
2023/01/08 08:41:37;;;;;;;6.97;4.40;;;;;;;10.21;85.05;99545.50;5008232;28;20424;-74
2023/01/08 08:44:02;;;;;;;5.63;3.70;;;;;;;10.22;84.92;99544.44;5014119;28;20434;-74
2023/01/08 08:46:28;;;;;;;4.40;3.10;;;;;;;10.24;84.70;99551.22;5014174;28;20393;-74
2023/01/08 08:48:53;;;;;;;2.83;2.63;;;;;;;10.24;84.84;99553.94;5009700;28;20408;-74
2023/01/08 08:51:19;;;;;;;3.07;2.77;;;;;;;10.17;85.26;99549.84;5007971;28;20405;-74
2023/01/08 08:53:44;;;;;;;3.50;2.90;;;;;;;10.18;85.19;99549.56;5011096;28;20415;-73
2023/01/08 08:56:09;;;;;;;2.77;2.43;;;;;;;10.19;85.36;99553.91;5006847;28;20421;-74
2023/01/08 08:58:34;;;;;;;5.53;3.80;;;;;;;10.17;85.41;99547.97;5010758;28;20409;-74
2023/01/08 09:01:03;;;;;;;6.73;4.37;;;;;;;10.18;85.45;99557.69;5012072;28;20452;-74
2023/01/08 09:03:29;;;;;;;3.67;3.38;;;;;;;10.23;85.47;99560.44;5013791;28;20405;-74
2023/01/08 09:05:54;;;;;;;3.10;2.90;;;;;;;10.23;85.63;99559.63;4993464;28;20413;-74
2023/01/08 09:08:20;;;;;;;3.53;3.23;;;;;;;10.26;85.36;99554.50;4992771;28;20421;-74
2023/01/08 09:10:45;;;;;;;8.17;3.60;;;;;;;10.28;85.46;99552.31;4990712;28;20896;-74
2023/01/08 09:13:10;;;;;;;5.50;4.07;;;;;;;10.30;85.28;99544.78;4990652;28;20406;-74
2023/01/08 09:15:36;;;;;;;4.93;3.50;;;;;;;10.33;85.15;99548.84;4988650;28;20411;-74
2023/01/08 09:18:02;;;;;;;5.03;3.63;;;;;;;10.33;85.21;99548.84;4993036;28;20537;-74
2023/01/08 09:20:28;;;;;;;3.67;3.17;;;;;;;10.32;85.76;99549.91;4990309;28;20421;-75
2023/01/08 09:22:53;;;;;;;3.10;2.77;;;;;;;10.32;85.58;99558.84;4993990;28;20420;-74
2023/01/08 09:25:19;;;;;;;4.17;3.13;;;;;;;10.34;85.52;99556.69;4992933;28;20410;-76
2023/01/08 09:27:44;;;;;;;4.57;3.00;;;;;;;10.39;85.43;99558.59;4990619;28;20885;-74
2023/01/08 09:30:10;;;;;;;3.20;2.60;;;;;;;10.40;85.53;99547.50;4991720;28;20422;-74
2023/01/08 09:32:37;;;;;;;4.80;2.50;;;;;;;10.45;85.49;99551.31;4992641;28;20402;-74
2023/01/08 09:35:03;;;;;;;3.00;2.60;;;;;;;10.49;85.51;99558.63;4992871;28;20414;-74
2023/01/08 09:37:29;;;;;;;2.70;2.50;;;;;;;10.46;85.47;99551.06;4992033;28;20494;-74
2023/01/08 09:39:54;;;;;;;2.17;2.00;;;;;;;10.43;85.75;99556.19;4992551;28;20486;-74
2023/01/08 09:42:24;;;;;;;3.40;3.20;;;;;;;10.45;85.76;99556.72;4992370;28;20912;-74
2023/01/08 09:44:52;;;;;;;2.50;2.20;;;;;;;10.43;85.82;99556.19;4992253;28;20406;-74
2023/01/08 09:47:27;;;;;;;2.95;2.85;;;;;;;10.38;86.24;99560.50;4992564;28;20498;-74
2023/01/08 09:49:58;;;;;;;2.03;1.58;;;;;;;10.44;86.01;99557.81;4991614;28;20398;-74
2023/01/08 09:52:24;;;;;;;4.10;2.47;;;;;;;10.53;85.83;99553.50;4991949;28;20440;-74
2023/01/08 09:54:49;;;;;;;3.43;1.83;;;;;;;10.54;85.75;99547.81;4990990;28;20523;-74
2023/01/08 09:57:19;;;;;;;1.83;1.70;;;;;;;10.59;85.67;99549.72;4994954;28;20412;-74
2023/01/08 09:59:48;;;;;;;2.17;1.77;;;;;;;10.60;85.72;99548.66;4988410;28;20838;-74
2023/01/08 10:02:19;;;;;;;1.55;1.45;;;;;;;10.65;85.42;99544.06;4986056;28;20497;-74
2023/01/08 10:04:47;;;;;;;1.75;1.65;;;;;;;10.69;85.20;99536.22;4991748;28;20394;-74
2023/01/08 10:07:20;;;;;;;1.63;1.63;;;;;;;10.74;85.29;99542.44;5009973;28;20922;-74
2023/01/08 10:09:48;;;;;;;1.60;1.50;;;;;;;10.77;85.30;99538.38;5010058;28;20773;-74
2023/01/08 10:12:17;;;;;;;1.90;1.10;;;;;;;10.80;85.14;99535.94;5010544;28;20496;-74
2023/01/08 10:14:48;;;;;;;1.10;1.10;;;;;;;10.83;84.97;99537.31;5011571;28;20397;-74
2023/01/08 10:17:29;;;;;;;1.17;1.08;;;;;;;10.80;84.71;99535.94;4992246;28;20409;-74
2023/01/08 10:19:54;;;;;;;1.65;1.55;;;;;;;10.83;84.88;99531.91;5007758;28;20908;-75
2023/01/08 10:22:23;;;;;;;1.30;1.20;;;;;;;10.87;84.78;99528.38;4992591;28;20504;-74
2023/01/08 10:24:49;;;;;;;1.27;1.20;;;;;;;10.90;84.70;99530.53;5007763;28;20404;-74
2023/01/08 10:27:21;;;;;;;1.35;1.25;;;;;;;10.96;84.62;99519.72;4994157;28;20463;-74
2023/01/08 10:29:50;;;;;;;1.53;1.33;;;;;;;11.06;84.44;99517.00;5011579;28;20412;-74
2023/01/08 10:32:17;;;;;;;0.90;0.90;;;;;;;11.19;83.91;99500.19;5011371;28;20884;-74
2023/01/08 10:35:10;;;;;;;1.25;1.15;;;;;;;11.24;83.46;99505.59;5011629;28;20427;-74
2023/01/08 10:37:41;;;;;;;1.02;1.00;;;;;;;11.24;83.61;99490.16;4980021;28;20476;-75
2023/01/08 10:40:25;;;;;;;2.90;1.20;;;;;;;11.29;83.17;99492.88;5010585;28;20401;-74
2023/01/08 10:42:52;;;;;;;1.60;1.10;;;;;;;11.31;82.93;99481.75;5009330;28;20552;-74
2023/01/08 10:45:27;;;;;;;1.02;1.00;;;;;;;11.40;82.63;99474.66;5004822;28;20443;-74
2023/01/08 10:48:03;;;;;;;1.38;0.80;;;;;;;11.48;82.52;99478.72;5011618;28;20892;-74
2023/01/08 10:50:31;;;;;;;1.90;0.70;;;;;;;11.45;82.16;99466.53;5009397;28;20421;-74
2023/01/08 10:53:03;;;;;;;1.42;1.00;;;;;;;11.44;82.09;99470.31;5010222;28;20404;-74
2023/01/08 10:55:37;;;;;;;1.40;1.20;;;;;;;11.54;81.85;99454.03;5011292;28;20476;-75
2023/01/08 10:58:08;;;;;;;1.90;0.98;;;;;;;11.71;81.22;99456.47;5010950;28;20452;-74
2023/01/08 11:00:36;;;;;;;1.00;1.00;;;;;;;11.72;80.92;99458.88;5010455;28;20436;-74
2023/01/08 11:03:05;;;;;;;2.20;1.10;;;;;;;11.75;80.68;99435.81;5011360;28;20452;-74
2023/01/08 11:05:36;;;;;;;1.00;1.00;;;;;;;11.78;80.63;99429.84;5009569;28;20424;-74
2023/01/08 11:08:05;;;;;;;1.00;0.90;;;;;;;11.70;80.57;99433.94;5011096;28;20393;-75
2023/01/08 11:10:35;;;;;;;1.02;0.90;;;;;;;11.62;80.47;99407.34;5010395;28;20450;-74
2023/01/08 11:13:06;;;;;;;1.15;1.05;;;;;;;11.57;80.37;99414.66;5003712;28;20768;-74
2023/01/08 11:15:41;;;;;;;2.70;1.60;;;;;;;11.54;80.40;99402.47;5011142;28;20429;-74
2023/01/08 11:18:18;;;;;;;2.08;1.88;;;;;;;11.59;80.34;99397.00;5011542;28;20409;-74
2023/01/08 11:20:44;;;;;;;1.05;0.90;;;;;;;11.74;80.25;99405.16;5009494;28;20772;-74
2023/01/08 11:23:16;;;;;;;1.40;1.30;;;;;;;11.84;79.97;99407.00;5011604;28;20700;-75
2023/01/08 11:25:46;;;;;;;1.70;0.90;;;;;;;11.93;79.88;99408.84;5011356;28;20746;-74
2023/01/08 11:28:18;;;;;;;0.98;0.93;;;;;;;12.08;79.39;99404.44;4993251;28;20400;-74
2023/01/08 11:30:52;;;;;;;2.65;1.20;;;;;;;12.18;79.09;99398.97;5010296;28;20895;-74
2023/01/08 11:33:21;;;;;;;1.20;1.10;;;;;;;12.21;78.80;99390.25;4988487;28;20487;-74
2023/01/08 11:36:05;;;;;;;2.00;1.20;;;;;;;12.29;78.58;99395.06;5011145;28;20451;-74
2023/01/08 11:38:31;;;;;;;1.30;1.00;;;;;;;12.37;77.94;99391.75;5009771;28;21813;-75
2023/01/08 11:41:19;;;;;;;2.88;2.25;;;;;;;12.37;77.62;99384.44;4992429;28;20964;-74
2023/01/08 11:44:18;;;;;;;6.00;3.15;;;;;;;12.28;77.77;99375.22;4991680;28;20411;-74
2023/01/08 11:47:12;;;;;;;3.05;2.40;;;;;;;12.23;78.19;99369.84;5001530;28;20413;-74
2023/01/08 11:49:56;;;;;;;3.63;2.30;;;;;;;12.34;77.62;99357.00;4943791;28;20866;-74
2023/01/08 11:52:33;;;;;;;1.23;1.02;;;;;;;12.49;76.94;99356.88;5014614;28;20895;-74